Time;durP1;ratioP1;P1;durP2;ratioP2;P2;SDS_P1;SDS_P2;PMS_P1;PMS_P2;Temp;Humidity;BMP_temperature;BMP_pressure;BME280_temperature;BME280_humidity;BME280_pressure;Samples;Min_cycle;Max_cycle;Signal;HPM_P1;HPM_P2
2022/11/29 03:47:35;;;;;;;16.13;7.68;;;7.40;99.90;;;;;;5225883;23;88569;-76
2022/11/29 03:50:09;;;;;;;16.08;7.78;;;7.40;99.90;;;;;;4805282;29;87665;-77
2022/11/29 03:52:41;;;;;;;16.92;7.60;;;7.50;99.90;;;;;;4809212;29;89139;-77
2022/11/29 03:55:44;;;;;;;14.07;6.38;;;7.60;99.90;;;;;;4812158;29;86887;-77
2022/11/29 03:58:20;;;;;;;;;;;7.60;99.90;;;;;;4808804;29;87095;-76
2022/11/29 04:00:48;;;;;;;14.65;7.40;;;7.60;99.90;;;;;;4810425;29;89087;-78
2022/11/29 04:03:31;;;;;;;17.30;8.18;;;7.60;99.90;;;;;;4812350;29;87953;-77
2022/11/29 04:06:23;;;;;;;17.70;7.63;;;7.60;99.90;;;;;;4828003;29;86258;-77
2022/11/29 04:09:06;;;;;;;14.35;8.05;;;7.60;99.90;;;;;;4816973;29;86325;-77
2022/11/29 04:11:54;;;;;;;16.60;7.45;;;7.50;99.90;;;;;;4827700;29;87158;-77
2022/11/29 04:14:41;;;;;;;15.55;7.63;;;7.60;99.90;;;;;;4827581;29;87432;-75
2022/11/29 04:17:37;;;;;;;15.65;7.35;;;7.60;99.90;;;;;;4802623;29;86836;-76
2022/11/29 04:20:27;;;;;;;17.92;7.75;;;7.60;99.90;;;;;;4795017;29;85982;-76
2022/11/29 04:23:30;;;;;;;15.90;7.95;;;7.60;99.90;;;;;;4808800;29;86630;-77
2022/11/29 04:26:13;;;;;;;16.92;8.13;;;7.50;99.90;;;;;;4809211;29;86742;-77
2022/11/29 04:29:01;;;;;;;18.25;7.63;;;7.50;99.90;;;;;;4821214;29;87742;-76
2022/11/29 04:31:36;;;;;;;15.52;7.65;;;7.60;99.90;;;;;;4828308;29;86351;-77
2022/11/29 04:34:20;;;;;;;11.20;6.50;;;7.50;99.90;;;;;;4811100;29;88468;-77
2022/11/29 04:37:08;;;;;;;12.43;6.88;;;7.60;99.90;;;;;;4793247;29;87972;-78
2022/11/29 04:39:46;;;;;;;13.00;6.97;;;7.60;99.90;;;;;;4801487;29;87071;-76
2022/11/29 04:42:32;;;;;;;13.80;7.43;;;7.70;99.90;;;;;;4814317;29;86318;-76
2022/11/29 04:45:19;;;;;;;14.55;7.70;;;7.70;99.90;;;;;;4800592;29;86769;-78
2022/11/29 04:47:55;;;;;;;13.45;6.50;;;7.70;99.90;;;;;;4809225;29;90112;-78
2022/11/29 04:50:55;;;;;;;14.65;6.50;;;7.80;99.90;;;;;;4800412;29;86667;-76
2022/11/29 04:53:47;;;;;;;13.48;6.75;;;7.80;99.90;;;;;;4803005;29;88808;-78
2022/11/29 04:56:44;;;;;;;13.63;6.55;;;7.80;99.90;;;;;;4807354;29;87443;-78
2022/11/29 04:59:30;;;;;;;16.20;6.93;;;7.70;99.90;;;;;;4802303;29;87630;-78
2022/11/29 05:02:08;;;;;;;15.35;6.47;;;7.70;99.90;;;;;;4805131;29;86559;-78
2022/11/29 05:05:00;;;;;;;15.32;6.63;;;7.70;99.90;;;;;;4815697;29;86885;-77
2022/11/29 05:07:59;;;;;;;16.63;6.72;;;7.70;99.90;;;;;;4805427;29;87743;-77
2022/11/29 05:10:57;;;;;;;17.90;7.00;;;7.70;99.90;;;;;;4808022;29;86994;-77
2022/11/29 05:13:47;;;;;;;13.82;6.65;;;7.70;99.90;;;;;;4817199;29;86930;-77
2022/11/29 05:16:19;;;;;;;17.25;6.38;;;7.70;99.90;;;;;;4808752;29;86135;-77
2022/11/29 05:18:48;;;;;;;14.40;6.88;;;7.70;99.90;;;;;;4808287;29;87389;-78
2022/11/29 05:21:27;;;;;;;15.15;7.15;;;7.70;99.90;;;;;;4806107;29;87919;-78
2022/11/29 05:24:08;;;;;;;14.40;6.57;;;7.70;99.90;;;;;;4811780;29;87225;-77
2022/11/29 05:26:52;;;;;;;15.20;6.97;;;7.70;99.90;;;;;;4793285;29;86357;-78
2022/11/29 05:29:30;;;;;;;17.42;7.47;;;7.70;99.90;;;;;;4793866;29;86758;-78
2022/11/29 05:32:29;;;;;;;16.95;7.18;;;7.60;99.90;;;;;;4806612;29;86892;-77
2022/11/29 05:35:28;;;;;;;12.57;6.85;;;7.70;99.90;;;;;;4819995;29;86547;-76
2022/11/29 05:38:26;;;;;;;11.65;6.47;;;7.70;99.90;;;;;;4807429;29;86400;-77
2022/11/29 05:41:10;;;;;;;17.23;7.13;;;7.70;99.90;;;;;;4807388;29;86737;-78
2022/11/29 05:44:13;;;;;;;15.10;6.93;;;7.70;99.90;;;;;;4804230;29;86424;-77
2022/11/29 05:46:54;;;;;;;15.05;6.93;;;7.70;99.90;;;;;;4804730;29;86490;-77
2022/11/29 05:49:37;;;;;;;15.27;7.68;;;7.80;99.90;;;;;;4820406;29;86657;-78
2022/11/29 05:52:23;;;;;;;18.17;8.23;;;7.90;99.90;;;;;;4807083;29;88807;-77
2022/11/29 05:55:13;;;;;;;19.13;8.60;;;7.90;99.90;;;;;;4807002;29;87943;-78
2022/11/29 05:58:02;;;;;;;17.33;8.43;;;7.90;99.90;;;;;;4805823;29;87009;-77
2022/11/29 06:00:46;;;;;;;17.77;7.97;;;7.90;99.90;;;;;;4804883;29;87606;-77
2022/11/29 06:03:22;;;;;;;16.35;7.93;;;7.90;99.90;;;;;;4794457;29;87444;-78
2022/11/29 06:06:00;;;;;;;14.98;7.50;;;7.90;99.90;;;;;;4807903;29;86747;-77
2022/11/29 06:08:44;;;;;;;19.58;7.30;;;8.00;99.90;;;;;;4800477;29;86228;-76
2022/11/29 06:11:18;;;;;;;20.30;7.35;;;8.00;99.90;;;;;;4817589;29;86012;-76
2022/11/29 06:14:19;;;;;;;15.98;7.40;;;8.00;99.90;;;;;;4814901;29;88268;-76
2022/11/29 06:17:10;;;;;;;16.55;7.82;;;8.00;99.90;;;;;;4776104;29;88104;-77
2022/11/29 06:19:57;;;;;;;16.45;7.70;;;8.00;99.90;;;;;;4821837;29;87276;-77
2022/11/29 06:22:54;;;;;;;15.93;7.45;;;8.00;99.90;;;;;;4806054;29;87334;-77
2022/11/29 06:25:57;;;;;;;16.90;8.13;;;7.90;99.90;;;;;;4808619;29;87072;-77
2022/11/29 06:28:43;;;;;;;14.55;7.38;;;8.00;99.90;;;;;;4806520;29;86405;-76
2022/11/29 06:31:38;;;;;;;16.48;8.43;;;8.00;99.90;;;;;;4797623;29;86266;-77
2022/11/29 06:34:24;;;;;;;17.83;8.65;;;8.10;99.90;;;;;;4809972;29;86635;-80
2022/11/29 06:36:56;;;;;;;19.75;9.15;;;8.10;99.90;;;;;;4811189;29;87625;-80
2022/11/29 06:39:22;;;;;;;17.67;9.55;;;8.00;99.90;;;;;;4808014;29;86373;-79
2022/11/29 06:41:47;;;;;;;20.33;10.30;;;8.00;99.90;;;;;;4804582;29;86532;-80
2022/11/29 06:44:14;;;;;;;19.70;9.27;;;8.00;99.90;;;;;;4803456;29;86352;-79
2022/11/29 06:47:07;;;;;;;20.00;10.13;;;8.00;99.90;;;;;;4801544;29;87441;-80
2022/11/29 06:49:56;;;;;;;18.10;8.98;;;8.00;99.90;;;;;;4802400;29;88511;-79
2022/11/29 06:52:39;;;;;;;17.42;8.57;;;8.00;99.90;;;;;;4805859;29;87546;-79
2022/11/29 06:55:26;;;;;;;20.38;9.05;;;8.00;99.90;;;;;;4807176;29;86797;-79
2022/11/29 06:58:07;;;;;;;24.50;10.13;;;8.00;99.90;;;;;;4817217;29;87665;-79
2022/11/29 07:00:55;;;;;;;18.60;8.45;;;8.10;99.90;;;;;;4806936;29;86808;-79
2022/11/29 07:03:47;;;;;;;20.83;8.80;;;8.10;99.90;;;;;;4805607;29;86818;-79
2022/11/29 07:06:22;;;;;;;19.20;9.05;;;8.10;99.90;;;;;;4807051;29;86169;-80
2022/11/29 07:08:54;;;;;;;20.02;9.82;;;8.10;99.90;;;;;;4811489;29;87285;-79
2022/11/29 07:11:21;;;;;;;16.70;8.73;;;8.10;99.90;;;;;;4813941;29;86766;-80
2022/11/29 07:13:47;;;;;;;16.92;8.07;;;8.20;99.90;;;;;;4816174;29;87244;-79
2022/11/29 07:16:56;;;;;;;15.18;7.28;;;8.20;99.90;;;;;;4804974;29;87230;-79
2022/11/29 07:19:38;;;;;;;19.40;9.68;;;8.20;99.90;;;;;;4802199;29;89190;-80
2022/11/29 07:22:35;;;;;;;18.33;9.65;;;8.20;99.90;;;;;;4802823;29;86409;-80
2022/11/29 07:25:24;;;;;;;18.05;8.82;;;8.20;99.90;;;;;;4810324;29;86615;-80
2022/11/29 07:28:12;;;;;;;19.65;8.57;;;8.30;99.90;;;;;;4801345;29;86240;-79
2022/11/29 07:30:56;;;;;;;18.98;9.23;;;8.30;99.90;;;;;;4805432;29;86683;-79
2022/11/29 07:33:31;;;;;;;20.40;10.48;;;8.30;99.90;;;;;;4808113;29;86281;-79
2022/11/29 07:36:22;;;;;;;18.65;9.07;;;8.30;99.90;;;;;;4812427;29;87582;-79
2022/11/29 07:39:20;;;;;;;17.17;8.60;;;8.30;99.90;;;;;;4806675;29;86890;-79
2022/11/29 07:42:01;;;;;;;14.85;7.78;;;8.30;99.90;;;;;;4807820;29;87515;-79
2022/11/29 07:44:34;;;;;;;17.10;8.02;;;8.30;99.90;;;;;;4809396;29;88361;-80
2022/11/29 07:47:00;;;;;;;17.88;9.32;;;8.30;99.90;;;;;;4800661;29;86819;-79
2022/11/29 07:49:26;;;;;;;18.35;8.82;;;8.30;99.90;;;;;;4807382;29;86395;-79
2022/11/29 07:51:53;;;;;;;16.73;7.43;;;8.30;99.90;;;;;;4808952;29;86536;-79
2022/11/29 07:54:20;;;;;;;16.92;8.25;;;8.40;99.90;;;;;;4813910;29;88000;-80
2022/11/29 07:56:46;;;;;;;18.23;8.55;;;8.40;99.90;;;;;;4805502;29;86620;-79
2022/11/29 07:59:13;;;;;;;16.15;7.55;;;8.50;99.90;;;;;;4801171;29;85942;-79
2022/11/29 08:01:39;;;;;;;16.90;7.47;;;8.50;99.90;;;;;;4810061;29;87876;-80
2022/11/29 08:04:06;;;;;;;17.63;8.35;;;8.50;99.90;;;;;;4812092;29;89358;-80
2022/11/29 08:06:31;;;;;;;16.27;7.43;;;8.50;99.90;;;;;;4802861;29;87560;-79
2022/11/29 08:08:58;;;;;;;15.27;7.90;;;8.60;99.90;;;;;;4807348;29;86445;-79
2022/11/29 08:11:24;;;;;;;22.55;7.70;;;8.70;99.90;;;;;;4810302;29;87274;-80
2022/11/29 08:13:49;;;;;;;17.48;7.75;;;8.70;99.90;;;;;;4807380;29;87107;-80
2022/11/29 08:16:17;;;;;;;13.43;7.32;;;8.70;99.90;;;;;;4794532;29;86209;-80
2022/11/29 08:18:43;;;;;;;19.13;7.88;;;8.70;99.90;;;;;;4812174;29;86979;-82
2022/11/29 08:21:09;;;;;;;16.45;7.72;;;8.70;99.90;;;;;;4813216;29;87851;-81
2022/11/29 08:23:35;;;;;;;17.75;7.22;;;8.70;99.90;;;;;;4819933;29;86465;-80
2022/11/29 08:26:02;;;;;;;16.50;7.25;;;8.80;99.90;;;;;;4812963;29;86247;-81
2022/11/29 08:28:28;;;;;;;34.97;9.38;;;8.80;99.90;;;;;;4818807;29;86275;-81
2022/11/29 08:31:05;;;;;;;17.05;8.05;;;8.90;99.90;;;;;;4819703;29;87621;-80
2022/11/29 08:33:34;;;;;;;21.67;7.53;;;8.80;99.90;;;;;;4819635;29;88470;-80
2022/11/29 08:36:10;;;;;;;17.10;8.13;;;8.80;99.90;;;;;;4815566;29;86756;-80
2022/11/29 08:38:36;;;;;;;15.73;8.38;;;8.70;99.90;;;;;;4815779;29;86880;-79
2022/11/29 08:41:06;;;;;;;21.20;9.43;;;8.80;99.90;;;;;;4816680;29;87403;-78
2022/11/29 08:43:32;;;;;;;17.77;8.75;;;8.80;99.80;;;;;;4812074;29;87523;-76
2022/11/29 08:45:58;;;;;;;19.20;9.32;;;8.70;99.90;;;;;;4812379;29;86637;-76
2022/11/29 08:48:25;;;;;;;20.92;9.10;;;8.70;99.90;;;;;;4816162;29;86248;-77
2022/11/29 08:50:52;;;;;;;18.00;11.15;;;8.70;99.90;;;;;;4811849;29;87055;-80
2022/11/29 08:56:03;;;;;;;17.95;9.40;;;8.70;99.90;;;;;;4808663;29;87737;-79
2022/11/29 08:58:29;;;;;;;19.15;8.93;;;8.70;99.90;;;;;;4815703;29;86893;-79
2022/11/29 09:00:55;;;;;;;15.90;8.13;;;8.70;99.90;;;;;;4814618;29;87461;-80
2022/11/29 09:06:07;;;;;;;17.70;9.30;;;8.80;99.90;;;;;;4813226;29;86532;-79
2022/11/29 09:08:34;;;;;;;24.38;9.25;;;8.70;99.90;;;;;;4811246;29;86751;-80
2022/11/29 09:11:06;;;;;;;17.77;8.25;;;8.80;99.90;;;;;;4812348;29;88130;-80
2022/11/29 09:13:31;;;;;;;17.55;9.02;;;8.80;99.90;;;;;;4828123;29;86549;-79
2022/11/29 09:15:57;;;;;;;16.35;8.05;;;8.80;99.90;;;;;;4810290;29;86786;-79
2022/11/29 09:18:23;;;;;;;14.02;7.03;;;9.00;99.90;;;;;;4819639;29;86929;-79
2022/11/29 09:20:48;;;;;;;19.63;8.02;;;9.00;99.90;;;;;;4812557;29;87784;-81
2022/11/29 09:23:14;;;;;;;17.30;8.10;;;9.00;99.90;;;;;;4822438;29;87171;-84
2022/11/29 09:25:40;;;;;;;14.50;7.65;;;9.10;99.90;;;;;;4809122;29;86651;-82
2022/11/29 09:28:06;;;;;;;13.18;7.38;;;9.10;99.90;;;;;;4812422;29;86293;-82
2022/11/29 09:30:33;;;;;;;13.88;7.63;;;9.20;99.90;;;;;;4814387;29;87437;-83
2022/11/29 09:33:01;;;;;;;15.57;7.40;;;9.20;99.90;;;;;;4809297;29;86387;-81
2022/11/29 09:35:27;;;;;;;16.92;7.03;;;9.20;99.90;;;;;;4819332;29;86778;-80
2022/11/29 09:37:53;;;;;;;13.25;7.80;;;9.20;99.90;;;;;;4822915;29;85442;-81
2022/11/29 09:40:26;;;;;;;22.00;6.72;;;9.20;99.90;;;;;;4807461;29;87265;-80
2022/11/29 09:43:36;;;;;;;12.77;7.32;;;9.20;99.90;;;;;;4805798;29;87119;-80
2022/11/29 09:46:51;;;;;;;16.42;6.72;;;9.30;99.90;;;;;;4780143;29;87349;-80
2022/11/29 09:49:43;;;;;;;10.15;4.75;;;9.30;99.90;;;;;;4754000;29;86802;-81
2022/11/29 09:52:20;;;;;;;11.48;5.82;;;9.30;99.90;;;;;;4802870;29;87330;-80
2022/11/29 09:54:48;;;;;;;12.43;5.82;;;9.40;99.90;;;;;;4821371;29;87010;-83
2022/11/29 09:57:16;;;;;;;16.05;5.78;;;9.50;99.90;;;;;;4817847;29;86280;-81
2022/11/29 09:59:50;;;;;;;14.15;5.80;;;9.50;99.90;;;;;;4820429;29;86814;-80
2022/11/29 10:02:41;;;;;;;12.52;5.65;;;9.60;99.50;;;;;;4819191;29;87232;-84
2022/11/29 10:05:25;;;;;;;11.65;5.85;;;9.60;99.30;;;;;;4806396;29;87409;-81
2022/11/29 10:08:07;;;;;;;13.23;5.63;;;9.60;99.50;;;;;;4821748;29;86533;-82
2022/11/29 10:10:48;;;;;;;11.65;5.43;;;9.60;99.60;;;;;;4810318;29;86337;-80
2022/11/29 10:13:33;;;;;;;12.65;5.50;;;9.70;99.40;;;;;;4808107;29;88023;-82
2022/11/29 10:16:07;;;;;;;11.30;6.38;;;9.60;99.20;;;;;;4814005;29;87717;-79
2022/11/29 10:18:54;;;;;;;11.43;6.07;;;9.60;99.10;;;;;;4807226;29;86134;-81
2022/11/29 10:21:27;;;;;;;12.82;6.22;;;9.60;99.50;;;;;;4802097;29;86936;-81
2022/11/29 10:24:01;;;;;;;17.95;6.38;;;9.70;99.50;;;;;;4808541;29;87891;-83
2022/11/29 10:26:27;;;;;;;12.73;5.35;;;9.60;99.30;;;;;;4815332;29;87425;-81
2022/11/29 10:28:56;;;;;;;16.48;5.25;;;9.50;99.10;;;;;;4814038;29;86369;-82
2022/11/29 10:31:26;;;;;;;12.95;5.78;;;9.40;99.40;;;;;;4806954;29;85607;-79
2022/11/29 10:33:54;;;;;;;12.05;5.00;;;9.40;99.90;;;;;;4812426;29;87036;-78
2022/11/29 10:36:25;;;;;;;12.85;5.90;;;9.50;99.80;;;;;;4812360;29;86402;-78
2022/11/29 10:38:58;;;;;;;12.73;5.50;;;9.60;99.80;;;;;;4809553;29;87639;-78
2022/11/29 10:41:25;;;;;;;13.63;5.95;;;9.70;99.80;;;;;;4810361;29;86740;-79
2022/11/29 10:43:55;;;;;;;11.75;5.32;;;9.70;99.60;;;;;;4810035;29;86807;-78
2022/11/29 10:46:33;;;;;;;9.90;3.97;;;9.80;99.00;;;;;;4808525;29;86714;-79
2022/11/29 10:49:03;;;;;;;7.15;3.30;;;9.80;98.80;;;;;;4812835;29;86792;-77
2022/11/29 10:51:30;;;;;;;10.30;3.75;;;9.80;98.30;;;;;;4811190;29;86245;-78
2022/11/29 10:54:05;;;;;;;10.15;4.15;;;9.90;98.20;;;;;;4807698;29;87380;-78
2022/11/29 10:56:36;;;;;;;12.65;4.90;;;9.90;98.30;;;;;;4810911;29;86476;-77
2022/11/29 10:59:07;;;;;;;14.98;4.88;;;10.00;98.40;;;;;;4810020;29;86549;-78
2022/11/29 11:01:40;;;;;;;16.33;5.60;;;10.00;98.40;;;;;;4807246;29;87038;-78
2022/11/29 11:04:13;;;;;;;14.75;5.90;;;10.10;97.90;;;;;;4804372;29;88426;-79
2022/11/29 11:06:51;;;;;;;13.90;5.57;;;10.10;97.80;;;;;;4801150;29;87927;-78
2022/11/29 11:09:54;;;;;;;13.80;5.75;;;10.10;97.70;;;;;;4824311;29;86244;-76
2022/11/29 11:12:26;;;;;;;15.40;5.53;;;10.10;97.80;;;;;;4807593;29;86159;-77
2022/11/29 11:15:31;;;;;;;11.65;5.70;;;10.10;97.80;;;;;;4812373;29;87279;-77
2022/11/29 11:18:00;;;;;;;14.82;5.60;;;10.10;97.50;;;;;;4807343;29;86403;-79
2022/11/29 11:20:31;;;;;;;13.18;5.63;;;10.10;97.30;;;;;;4810379;29;86834;-77
2022/11/29 11:22:59;;;;;;;13.85;6.05;;;10.10;97.50;;;;;;4815575;29;86112;-77
2022/11/29 11:25:35;;;;;;;15.55;6.28;;;10.10;97.40;;;;;;4806426;29;87807;-77
2022/11/29 11:28:21;;;;;;;16.13;6.30;;;10.20;97.40;;;;;;4808350;29;87498;-77
2022/11/29 11:30:56;;;;;;;10.25;4.82;;;10.20;97.60;;;;;;4813266;29;87599;-77
2022/11/29 11:33:37;;;;;;;10.35;4.75;;;10.10;97.20;;;;;;4801807;29;86864;-77
2022/11/29 11:36:23;;;;;;;10.35;4.10;;;10.10;97.10;;;;;;4810246;29;87761;-82
2022/11/29 11:38:55;;;;;;;11.93;4.43;;;10.10;97.20;;;;;;4810410;29;86984;-79
2022/11/29 11:41:21;;;;;;;13.70;4.57;;;10.10;97.20;;;;;;4813833;29;86585;-81
2022/11/29 11:43:58;;;;;;;10.15;4.88;;;10.00;97.30;;;;;;4809489;29;87195;-78
2022/11/29 11:46:47;;;;;;;13.40;5.43;;;9.90;97.40;;;;;;4806446;29;87461;-81
2022/11/29 11:49:24;;;;;;;9.15;4.28;;;9.90;97.50;;;;;;4810698;29;86313;-77
2022/11/29 11:51:50;;;;;;;9.25;4.65;;;9.80;97.40;;;;;;4803351;29;86403;-84
2022/11/29 11:54:16;;;;;;;13.93;5.05;;;9.80;97.50;;;;;;4804595;29;86651;-78
2022/11/29 11:56:42;;;;;;;9.48;4.60;;;9.70;97.90;;;;;;4799125;29;87797;-78
2022/11/29 11:59:18;;;;;;;9.65;4.55;;;9.70;97.80;;;;;;4804880;29;87555;-82
2022/11/29 12:01:44;;;;;;;;;;;9.70;98.10;;;;;;4802212;29;86409;-77
2022/11/29 12:04:19;;;;;;;6.72;2.60;;;9.70;97.90;;;;;;4801704;29;87115;-79
2022/11/29 12:06:52;;;;;;;12.10;3.20;;;9.70;96.40;;;;;;4804766;29;87214;-81
2022/11/29 12:09:33;;;;;;;6.43;2.78;;;9.70;96.90;;;;;;4806403;29;86782;-81
2022/11/29 12:12:16;;;;;;;10.20;3.63;;;9.70;97.40;;;;;;4809523;29;86976;-79
2022/11/29 12:14:57;;;;;;;5.53;2.65;;;9.70;97.60;;;;;;4798739;29;86373;-79
2022/11/29 12:17:45;;;;;;;6.57;2.70;;;9.80;97.70;;;;;;4798022;29;88185;-80
2022/11/29 12:20:27;;;;;;;6.47;2.58;;;9.80;97.20;;;;;;4806525;29;87115;-81
2022/11/29 12:22:52;;;;;;;5.97;2.03;;;9.80;96.80;;;;;;4795687;29;87670;-78
2022/11/29 12:25:30;;;;;;;10.60;2.47;;;9.80;96.10;;;;;;4809348;29;86618;-79
2022/11/29 12:27:56;;;;;;;7.68;2.50;;;9.80;96.40;;;;;;4811662;29;87299;-78
2022/11/29 12:30:22;;;;;;;6.00;2.20;;;9.90;96.90;;;;;;4814254;29;86637;-78
2022/11/29 12:33:00;;;;;;;21.67;2.25;;;9.90;96.30;;;;;;4819732;29;86504;-79
2022/11/29 12:35:33;;;;;;;6.65;1.75;;;9.90;96.50;;;;;;4795380;29;86839;-78
2022/11/29 12:38:41;;;;;;;5.53;1.65;;;9.90;96.60;;;;;;4812098;29;87717;-80
2022/11/29 12:41:15;;;;;;;6.82;1.73;;;9.90;96.20;;;;;;4810871;29;86705;-79
2022/11/29 12:44:04;;;;;;;7.30;1.55;;;10.00;96.40;;;;;;4812372;29;86687;-79
2022/11/29 12:46:31;;;;;;;4.80;1.70;;;10.00;95.80;;;;;;4801482;29;86917;-78
2022/11/29 12:49:04;;;;;;;9.05;1.70;;;9.90;96.20;;;;;;4797942;29;88212;-79
2022/11/29 12:51:45;;;;;;;6.38;1.65;;;10.00;96.10;;;;;;4802815;29;87411;-78
2022/11/29 12:54:35;;;;;;;5.93;1.73;;;10.00;95.70;;;;;;4804257;29;86636;-78
2022/11/29 12:57:17;;;;;;;5.97;1.77;;;10.10;96.00;;;;;;4798049;29;86506;-79
2022/11/29 13:00:10;;;;;;;9.38;2.40;;;10.00;96.20;;;;;;4812218;29;87748;-81
2022/11/29 13:03:14;;;;;;;6.07;1.85;;;10.10;96.30;;;;;;4808674;29;87382;-83
2022/11/29 13:06:09;;;;;;;9.20;2.10;;;10.10;95.80;;;;;;4811258;29;86248;-80
2022/11/29 13:09:02;;;;;;;9.65;1.90;;;10.10;95.80;;;;;;4813050;29;86001;-80
2022/11/29 13:11:36;;;;;;;7.60;2.05;;;10.10;95.90;;;;;;4810151;29;87020;-79
2022/11/29 13:14:10;;;;;;;11.93;2.50;;;10.10;95.60;;;;;;4811770;29;86754;-78
2022/11/29 13:16:58;;;;;;;9.38;2.15;;;10.10;95.50;;;;;;4811596;29;87050;-80
2022/11/29 13:19:42;;;;;;;7.60;2.03;;;10.10;95.60;;;;;;4811976;29;86904;-81
2022/11/29 13:22:38;;;;;;;8.20;2.08;;;10.10;95.60;;;;;;4811558;29;86922;-79
2022/11/29 13:25:17;;;;;;;6.35;1.98;;;10.10;95.70;;;;;;4798237;29;86999;-80
2022/11/29 13:28:00;;;;;;;9.00;2.17;;;10.00;95.60;;;;;;4805328;29;86617;-79
2022/11/29 13:30:26;;;;;;;9.82;2.10;;;10.00;95.80;;;;;;4810502;29;88223;-78
2022/11/29 13:33:23;;;;;;;7.25;2.10;;;10.00;96.20;;;;;;4813318;29;86575;-78
2022/11/29 13:36:24;;;;;;;11.55;3.65;;;9.90;96.10;;;;;;4804082;29;87446;-79
2022/11/29 13:39:21;;;;;;;10.05;2.80;;;10.00;96.30;;;;;;4808931;29;86321;-79
2022/11/29 13:42:09;;;;;;;8.38;1.98;;;9.90;96.30;;;;;;4811547;29;86967;-79
2022/11/29 13:44:56;;;;;;;9.93;2.40;;;9.90;96.40;;;;;;4824965;29;87643;-79
2022/11/29 13:47:22;;;;;;;13.98;2.60;;;9.70;96.70;;;;;;4797250;29;88216;-79
2022/11/29 13:49:49;;;;;;;8.18;2.20;;;9.70;97.20;;;;;;4811054;29;86894;-79
2022/11/29 13:52:43;;;;;;;13.20;4.35;;;9.80;97.20;;;;;;4810464;29;87017;-79
2022/11/29 13:55:13;;;;;;;12.80;2.72;;;9.70;97.20;;;;;;4794788;29;88748;-78
2022/11/29 13:57:47;;;;;;;9.50;2.88;;;9.70;97.50;;;;;;4806631;29;87099;-79
2022/11/29 14:00:33;;;;;;;6.57;1.92;;;9.70;97.40;;;;;;4802509;29;86178;-80
2022/11/29 14:03:20;;;;;;;11.75;1.83;;;9.60;97.40;;;;;;4811831;29;86278;-79
2022/11/29 14:05:51;;;;;;;7.55;2.10;;;9.60;97.50;;;;;;4822044;29;87218;-78
2022/11/29 14:08:26;;;;;;;6.93;2.50;;;9.60;97.90;;;;;;4810499;29;87504;-79
2022/11/29 14:10:59;;;;;;;12.80;5.10;;;9.60;97.70;;;;;;4810395;29;87252;-80
2022/11/29 14:13:41;;;;;;;9.40;3.20;;;9.60;97.80;;;;;;4810902;29;86528;-78
2022/11/29 14:16:30;;;;;;;7.07;1.35;;;9.60;98.10;;;;;;4810211;29;87068;-79
2022/11/29 14:19:18;;;;;;;12.55;2.70;;;9.60;97.30;;;;;;4800016;29;87462;-79
2022/11/29 14:22:05;;;;;;;19.90;4.63;;;9.60;96.90;;;;;;4810661;29;86964;-77
2022/11/29 14:24:31;;;;;;;21.38;4.72;;;9.50;97.30;;;;;;4804213;29;86981;-77
2022/11/29 14:27:05;;;;;;;17.75;4.05;;;9.50;97.60;;;;;;4809847;29;87320;-78
2022/11/29 14:29:46;;;;;;;37.63;7.18;;;9.50;97.50;;;;;;4806439;29;87514;-78
2022/11/29 14:32:55;;;;;;;35.35;6.78;;;9.50;97.60;;;;;;4801939;29;86893;-78
2022/11/29 14:36:16;;;;;;;10.25;1.73;;;9.50;97.60;;;;;;4794973;29;87167;-81
2022/11/29 14:38:53;;;;;;;6.90;1.38;;;9.50;97.60;;;;;;4756271;29;87591;-79
2022/11/29 14:41:32;;;;;;;7.20;1.40;;;9.40;97.30;;;;;;4757425;29;88393;-81
2022/11/29 14:44:31;;;;;;;8.50;1.20;;;9.40;97.70;;;;;;4785787;29;86771;-79
2022/11/29 14:47:19;;;;;;;16.13;4.88;;;9.40;97.90;;;;;;4808595;29;86740;-80
2022/11/29 14:49:45;;;;;;;10.63;2.03;;;9.30;97.80;;;;;;4809941;29;87454;-79
2022/11/29 14:52:13;;;;;;;6.40;1.17;;;9.20;97.70;;;;;;4809861;29;87668;-80
2022/11/29 14:54:58;;;;;;;8.25;1.02;;;9.10;98.00;;;;;;4810390;29;86746;-80
2022/11/29 14:57:46;;;;;;;5.32;1.27;;;9.10;98.30;;;;;;4810838;29;86213;-81
2022/11/29 15:00:35;;;;;;;7.22;1.42;;;9.10;98.30;;;;;;4809317;29;86786;-81
2022/11/29 15:03:11;;;;;;;4.72;1.10;;;9.00;98.40;;;;;;4788981;29;89807;-80
2022/11/29 15:05:39;;;;;;;6.65;1.75;;;9.00;98.50;;;;;;4825518;29;87154;-80
2022/11/29 15:08:39;;;;;;;11.82;2.45;;;9.00;98.60;;;;;;4817127;29;86280;-81
2022/11/29 15:11:24;;;;;;;5.95;1.75;;;8.90;98.80;;;;;;4810319;29;86748;-80
2022/11/29 15:14:02;;;;;;;9.52;2.13;;;9.00;99.00;;;;;;4816219;29;87203;-79
2022/11/29 15:16:31;;;;;;;11.02;1.80;;;8.90;98.90;;;;;;4811600;29;86225;-81
2022/11/29 15:19:20;;;;;;;8.57;1.67;;;8.90;99.00;;;;;;4808387;29;86909;-79
2022/11/29 15:21:52;;;;;;;;;;;8.90;99.00;;;;;;4825993;29;87595;-80
2022/11/29 15:24:18;;;;;;;11.07;3.33;;;8.90;98.90;;;;;;4815271;29;86564;-82
2022/11/29 15:26:58;;;;;;;7.22;1.80;;;8.80;98.90;;;;;;4802923;29;87218;-84
2022/11/29 15:29:25;;;;;;;6.43;1.20;;;8.80;99.00;;;;;;4797744;29;86623;-83
2022/11/29 15:31:54;;;;;;;7.45;1.83;;;8.80;98.70;;;;;;4813652;29;87722;-80
2022/11/29 15:34:31;;;;;;;5.95;1.58;;;8.80;99.10;;;;;;4820422;29;87609;-81
2022/11/29 15:36:58;;;;;;;5.00;1.23;;;8.80;99.10;;;;;;4815118;29;86721;-79
2022/11/29 15:39:28;;;;;;;6.25;1.23;;;8.80;99.00;;;;;;4820257;29;86649;-80
2022/11/29 15:41:58;;;;;;;;;;;8.80;98.80;;;;;;4840581;29;87474;-81
2022/11/29 15:44:24;;;;;;;7.72;1.23;;;8.80;98.80;;;;;;4827477;29;87013;-80
2022/11/29 15:46:50;;;;;;;3.53;1.02;;;8.80;99.00;;;;;;4820038;29;86218;-83
2022/11/29 15:49:27;;;;;;;5.40;1.30;;;8.70;98.90;;;;;;4800251;29;86352;-82
2022/11/29 15:52:09;;;;;;;5.93;1.33;;;8.70;98.70;;;;;;4811251;29;88027;-81
2022/11/29 15:54:42;;;;;;;5.13;1.40;;;8.70;98.80;;;;;;4807624;29;87543;-81
2022/11/29 15:57:23;;;;;;;6.85;1.83;;;8.60;98.60;;;;;;4811273;29;87165;-82
2022/11/29 15:59:57;;;;;;;4.53;1.30;;;8.60;99.00;;;;;;4811117;29;86686;-81
2022/11/29 16:02:29;;;;;;;5.97;1.60;;;8.70;98.50;;;;;;4810854;29;87874;-81
2022/11/29 16:05:02;;;;;;;11.65;2.20;;;8.70;98.80;;;;;;4812253;29;87462;-80
2022/11/29 16:07:31;;;;;;;6.05;1.38;;;8.70;98.90;;;;;;4812779;29;86658;-79
2022/11/29 16:10:18;;;;;;;6.93;1.33;;;8.70;98.90;;;;;;4807089;29;86678;-79
2022/11/29 16:12:58;;;;;;;8.65;2.08;;;8.70;98.80;;;;;;4813617;29;87778;-80
2022/11/29 16:15:29;;;;;;;7.78;2.50;;;8.70;98.90;;;;;;4816608;29;87061;-79
2022/11/29 16:17:55;;;;;;;7.57;1.90;;;8.60;99.10;;;;;;4811290;29;86397;-80
2022/11/29 16:20:23;;;;;;;7.18;1.80;;;8.60;99.00;;;;;;4817035;29;86370;-79
2022/11/29 16:23:12;;;;;;;7.40;1.15;;;8.60;99.20;;;;;;4824599;29;88247;-79
2022/11/29 16:25:52;;;;;;;7.20;1.70;;;8.60;98.80;;;;;;4802411;29;88372;-80
2022/11/29 16:28:18;;;;;;;5.88;1.25;;;8.60;99.10;;;;;;4812584;29;86946;-80
2022/11/29 16:30:44;;;;;;;8.82;1.58;;;8.60;99.00;;;;;;4810572;29;87209;-80
2022/11/29 16:33:20;;;;;;;6.03;1.35;;;8.50;99.00;;;;;;4811575;29;87563;-82
2022/11/29 16:35:47;;;;;;;5.05;1.55;;;8.60;98.90;;;;;;4807711;29;87285;-81
2022/11/29 16:38:19;;;;;;;9.48;2.53;;;8.50;98.90;;;;;;4802262;29;86729;-79
2022/11/29 16:41:01;;;;;;;13.98;4.95;;;8.60;99.00;;;;;;4801932;29;87690;-81
2022/11/29 16:43:49;;;;;;;12.63;3.88;;;8.60;98.70;;;;;;4803063;29;87889;-79
2022/11/29 16:46:21;;;;;;;5.53;2.00;;;8.60;98.90;;;;;;4797157;29;87531;-81
2022/11/29 16:48:48;;;;;;;9.15;1.98;;;8.60;98.80;;;;;;4820215;29;87081;-79
2022/11/29 16:51:22;;;;;;;7.88;1.60;;;8.60;98.80;;;;;;4811775;29;86236;-79
2022/11/29 16:53:52;;;;;;;7.25;1.92;;;8.60;98.80;;;;;;4813539;29;87384;-79
2022/11/29 16:56:21;;;;;;;5.88;2.00;;;8.60;99.00;;;;;;4812061;29;87454;-80
2022/11/29 16:59:00;;;;;;;6.40;1.83;;;8.50;99.10;;;;;;4811242;29;86903;-79
2022/11/29 17:01:30;;;;;;;9.20;2.10;;;8.50;99.20;;;;;;4810770;29;86602;-81
2022/11/29 17:03:58;;;;;;;7.80;2.15;;;8.40;99.50;;;;;;4811272;29;87841;-80
2022/11/29 17:06:24;;;;;;;9.60;2.40;;;8.40;99.70;;;;;;4806465;29;86676;-79
2022/11/29 17:08:51;;;;;;;7.32;2.15;;;8.40;99.90;;;;;;4800460;29;86863;-78
2022/11/29 17:11:17;;;;;;;7.05;2.50;;;8.30;99.90;;;;;;4806046;29;86395;-78
2022/11/29 17:13:43;;;;;;;8.10;2.50;;;8.30;99.90;;;;;;4806726;29;88380;-78
2022/11/29 17:16:13;;;;;;;8.23;2.80;;;8.30;99.90;;;;;;4807525;29;88152;-78
2022/11/29 17:18:40;;;;;;;8.88;3.38;;;8.30;99.90;;;;;;4802257;29;87652;-79
2022/11/29 17:21:15;;;;;;;8.98;2.55;;;8.30;99.90;;;;;;4804568;29;86562;-78
2022/11/29 17:23:41;;;;;;;8.25;2.97;;;8.30;99.90;;;;;;4805422;29;88242;-79
2022/11/29 17:26:08;;;;;;;7.55;2.45;;;8.20;99.90;;;;;;4799083;29;87067;-79
2022/11/29 17:28:34;;;;;;;6.63;2.38;;;8.20;99.90;;;;;;4796805;29;86694;-79
2022/11/29 17:31:10;;;;;;;9.88;3.70;;;8.20;99.90;;;;;;4795185;29;86419;-79
2022/11/29 17:33:36;;;;;;;8.80;3.85;;;8.20;99.90;;;;;;4803273;29;87776;-79
2022/11/29 17:36:07;;;;;;;9.80;2.95;;;8.20;99.90;;;;;;4803479;29;86899;-79
2022/11/29 17:38:33;;;;;;;8.90;2.90;;;8.20;99.90;;;;;;4803856;29;88448;-80